Notice: Undefined index: language in /home/u110864294/public_html/vam/index.php on line 26
Air Comet Virtual

 METAR AND TAF INFORMATION
METAR FOR LEIB
ADDS - METARS form results

(0418 UTC 21 August 2018)
Data provider http://aviationweather.gov/adds/metars/
 
METAR text: LEIB 210400Z 36003KT CAVOK 22/19 Q1016 NOSIG
Conditions at: LEIB (IBIZA/ES CODOLA , ES) observed 0400 UTC 21 August 2018
Temperature: 22.0°C (72°F)
Dewpoint: 19.0°C (66°F) [RH = 83%]
Pressure (altimeter): 30.00 inches Hg (1016.0 mb)
Winds: from the N (360 degrees) at 3 MPH (3 knots; 1.6 m/s)
Visibility: 6 or more miles (10+ km)
Ceiling: ceiling and visibility are OK
Clouds: unknown
Weather: no significant weather observed at this time

METAR text: LEIB 210330Z 00000KT CAVOK 22/19 Q1016 NOSIG
Conditions at: LEIB (IBIZA/ES CODOLA , ES) observed 0330 UTC 21 August 2018
Temperature: 22.0°C (72°F)
Dewpoint: 19.0°C (66°F) [RH = 83%]
Pressure (altimeter): 30.00 inches Hg (1016.0 mb)
Winds: calm
Visibility: 6 or more miles (10+ km)
Ceiling: ceiling and visibility are OK
Clouds: unknown
Weather: no significant weather observed at this time

Forecast for: LEIB (IBIZA/ES CODOLA , ES)
Text: TAF LEIB 210200Z 2103/2203 31005KT 9999 FEW030 TX33/2112Z TN22/2105Z
Forecast period: 0300 to 0800 UTC 21 August 2018
Forecast type: FROM: standard forecast or significant change
Winds: from the NW (310 degrees) at 6 MPH (5 knots; 2.6 m/s)
Visibility: 6 or more miles (10+ km)
Clouds: few clouds at 3000 feet AGL
Weather: no significant weather forecast for this period
Text: BECMG 2108/2110 15008KT
Forecast period: 0800 to 1800 UTC 21 August 2018
Forecast type: BECOMING: Conditions expected to become as follows by 1000 UTC 21 August 2018
Winds: from the SSE (150 degrees) at 9 MPH (8 knots; 4.2 m/s)
Visibility: 6 or more miles (10+ km)
Clouds: few clouds at 3000 feet AGL
Weather: no significant weather forecast for this period
Text: BECMG 2118/2120 VRB03KT
Forecast period: 1800 UTC 21 August 2018 to 0300 UTC 22 August 2018
Forecast type: BECOMING: Conditions expected to become as follows by 2000 UTC 21 August 2018
Winds: variable direction winds at 3 MPH (3 knots; 1.6 m/s)
Visibility: 6 or more miles (10+ km)
Clouds: few clouds at 3000 feet AGL
Weather: no significant weather forecast for this period

 AIRPORT MAP

 RUNWAY INFORMATION
Runway 06 Runway length 9186 ft Runway width 148 ft
Runway elevation 13 ft Runway displaced threshold 0 ft Runway heading 62
Runway 24 Runway length 9186 ft Runway width 148 ft
Runway elevation 16 ft Runway displaced threshold 0 ft Runway heading 242

 AIRPORT FREQUENCIES
Type APP Name PALMA APP Frequency 118.125 MHZ
Type APP Name APP Frequency 119.8 MHZ
Type ATIS Name ATIS Frequency 117.8 MHZ
Type GND Name GND Frequency 121.8 MHZ
Type TWR Name TWR Frequency 118.5 MHZ

 AIRPORT NEAR NAVIGATION AIDS
Type VOR-DME Name Ibiza Frequency 117800 KHZ
Type NDB Name Ibiza Frequency 394 KHZ



Powered by Virtual Airlines Manager [v2.6.2]